Linda Fortune — 3FOW6 — position and weather

sailwx.info

Track history (hours):
 
Tides and Currents Weather Stations Pressure Air Temp Water Temp Dewpoint Dewpoint Depression Visibility Wind Speed Wind Dir Waves Ship Positions

Linda Fortune

Last reported at 2017-Jun-23 16:04 UTC. Time now 2017-Jun-28 10:41 UTC.
Position N 38°12' E 121°47'.

Length 281 m; draft 8.4 m.

Type: Cargo ship. MMSI: 352793000.

Date/timePositionNaut miles runAvg speedWind from/ knotsBaromVisibWave heightAir tempDewpointWater temp
2017-Jun-23 16:04N 38°12' E 121°47'2610.9
2017-Jun-23 13:42N 38°23' E 121°18'810.6
2017-Jun-23 12:57N 38°27' E 121°09'510.8
2017-Jun-23 12:29N 38°29' E 121°03'510.6
2017-Jun-23 12:00N 38°32' E 120°57'611.1
2017-Jun-23 11:29N 38°34' E 120°51'3111.4
2017-Jun-23 08:47N 38°45' E 120°14'4210.3
2017-Jun-23 04:43N 38°59' E 119°23'2 9.6
2017-Jun-23 04:30N 38°60' E 119°21'21 0.6
2017-Jun-21 17:50N 39°13' E 118°60'0 0.0
2017-Jun-21 13:02N 39°13' E 118°60'0 0.0
2017-Jun-21 12:56N 39°13' E 118°60'0 0.0
2017-Jun-21 12:20N 39°13' E 118°60'0 0.0
2017-Jun-21 11:56N 39°13' E 118°60'0 0.0
2017-Jun-21 11:29N 39°13' E 118°60'0 0.0
2017-Jun-21 10:47N 39°13' E 118°60'0 0.0
2017-Jun-21 10:23N 39°13' E 118°60'0 0.0
2017-Jun-21 09:56N 39°13' E 118°60'0 0.0
2017-Jun-21 09:29N 39°13' E 118°60'0 0.0
2017-Jun-21 08:59N 39°13' E 118°60'0 0.0
2017-Jun-21 08:23N 39°13' E 118°60'0 0.0
2017-Jun-21 07:59N 39°13' E 118°60'0 0.0
2017-Jun-21 07:20N 39°13' E 118°60'0 0.0
2017-Jun-21 06:59N 39°13' E 118°60'1 0.2
2017-Jun-20 22:53N 39°13' E 119°01'0 0.0
2017-Jun-20 17:56N 39°13' E 119°01'0 0.0
2017-Jun-20 17:14N 39°13' E 119°01'0 0.0
2017-Jun-20 15:02N 39°13' E 119°01'0 0.0
2017-Jun-20 14:41N 39°13' E 119°01'0 0.0
2017-Jun-20 14:23N 39°13' E 119°01'0 0.0
2017-Jun-20 13:29N 39°13' E 119°01'0 0.0
2017-Jun-20 12:59N 39°13' E 119°01'0 0.0
2017-Jun-20 12:29N 39°13' E 119°01'0 0.0
2017-Jun-20 11:53N 39°13' E 119°01'0 0.0
2017-Jun-20 10:56N 39°13' E 119°01'21 0.6
2017-Jun-19 02:21N 38°55' E 119°16'0 0.2
2017-Jun-19 01:57N 38°55' E 119°16'0 0.2
2017-Jun-19 01:21N 38°55' E 119°15'0 0.1
2017-Jun-18 23:33N 38°55' E 119°15'0 0.0
2017-Jun-18 23:21N 38°55' E 119°15'0 0.0
2017-Jun-18 23:00N 38°55' E 119°15'0 0.0
2017-Jun-18 22:27N 38°55' E 119°15'0 0.1
2017-Jun-18 20:27N 38°55' E 119°16'0 0.1
2017-Jun-18 19:54N 38°55' E 119°16'0 0.0
2017-Jun-18 17:51N 38°55' E 119°16'0 0.0
2017-Jun-18 17:24N 38°55' E 119°16'0 0.0
2017-Jun-18 17:00N 38°55' E 119°16'0 0.0
2017-Jun-18 16:27N 38°55' E 119°16'0 0.0
2017-Jun-18 00:27N 38°55' E 119°16'0 0.2
2017-Jun-18 00:00N 38°55' E 119°16'0 0.2
2017-Jun-17 23:30N 38°55' E 119°16'0 0.1
2017-Jun-17 18:54N 38°55' E 119°16'18 0.5
2017-Jun-16 09:31N 38°53' E 119°38'010.9
2017-Jun-16 09:28N 38°52' E 119°39'510.1
2017-Jun-16 09:00N 38°51' E 119°45'510.2
2017-Jun-16 08:30N 38°50' E 119°51'4 9.0
2017-Jun-16 08:00N 38°48' E 119°56'610.6
2017-Jun-16 07:28N 38°47' E 120°04'611.4
2017-Jun-16 06:58N 38°46' E 120°11'711.2
2017-Jun-16 06:22N 38°44' E 120°19'610.9
2017-Jun-16 05:51N 38°43' E 120°26'3310.0
2017-Jun-16 02:31N 38°31' E 121°06'0 9.8
2017-Jun-16 02:30N 38°31' E 121°06'5 9.5
2017-Jun-16 01:57N 38°29' E 121°12'5 9.4
2017-Jun-16 01:27N 38°27' E 121°18'7 9.5
2017-Jun-16 00:44N 38°25' E 121°26'6 9.4
2017-Jun-16 00:07N 38°23' E 121°33'33 9.7
2017-Jun-15 20:43N 38°12' E 122°13'3 9.8
2017-Jun-15 20:24N 38°11' E 122°17'8 9.7
2017-Jun-15 19:32N 38°08' E 122°27'25 9.9
2017-Jun-15 16:57N 37°60' E 122°57'  
Track history (hours):
 
Tides and Currents Weather Stations Pressure Air Temp Water Temp Dewpoint Dewpoint Depression Visibility Wind Speed Wind Dir Waves Ship Positions

Linda Fortune

Last reported at 2017-Jun-23 16:04 UTC. Time now 2017-Jun-28 10:41 UTC.
Position N 38°12' E 121°47'.

Length 281 m; draft 8.4 m.

Type: Cargo ship. MMSI: 352793000.

Date/timePositionNaut miles runAvg speedWind from/ knotsBaromVisibWave heightAir tempDewpointWater temp
2017-Jun-23 16:04N 38°12' E 121°47'2610.9
2017-Jun-23 13:42N 38°23' E 121°18'810.6
2017-Jun-23 12:57N 38°27' E 121°09'510.8
2017-Jun-23 12:29N 38°29' E 121°03'510.6
2017-Jun-23 12:00N 38°32' E 120°57'611.1
2017-Jun-23 11:29N 38°34' E 120°51'3111.4
2017-Jun-23 08:47N 38°45' E 120°14'4210.3
2017-Jun-23 04:43N 38°59' E 119°23'2 9.6
2017-Jun-23 04:30N 38°60' E 119°21'21 0.6
2017-Jun-21 17:50N 39°13' E 118°60'0 0.0
2017-Jun-21 13:02N 39°13' E 118°60'0 0.0
2017-Jun-21 12:56N 39°13' E 118°60'0 0.0
2017-Jun-21 12:20N 39°13' E 118°60'0 0.0
2017-Jun-21 11:56N 39°13' E 118°60'0 0.0
2017-Jun-21 11:29N 39°13' E 118°60'0 0.0
2017-Jun-21 10:47N 39°13' E 118°60'0 0.0
2017-Jun-21 10:23N 39°13' E 118°60'0 0.0
2017-Jun-21 09:56N 39°13' E 118°60'0 0.0
2017-Jun-21 09:29N 39°13' E 118°60'0 0.0
2017-Jun-21 08:59N 39°13' E 118°60'0 0.0
2017-Jun-21 08:23N 39°13' E 118°60'0 0.0
2017-Jun-21 07:59N 39°13' E 118°60'0 0.0
2017-Jun-21 07:20N 39°13' E 118°60'0 0.0
2017-Jun-21 06:59N 39°13' E 118°60'1 0.2
2017-Jun-20 22:53N 39°13' E 119°01'0 0.0
2017-Jun-20 17:56N 39°13' E 119°01'0 0.0
2017-Jun-20 17:14N 39°13' E 119°01'0 0.0
2017-Jun-20 15:02N 39°13' E 119°01'0 0.0
2017-Jun-20 14:41N 39°13' E 119°01'0 0.0
2017-Jun-20 14:23N 39°13' E 119°01'0 0.0
2017-Jun-20 13:29N 39°13' E 119°01'0 0.0
2017-Jun-20 12:59N 39°13' E 119°01'0 0.0
2017-Jun-20 12:29N 39°13' E 119°01'0 0.0
2017-Jun-20 11:53N 39°13' E 119°01'0 0.0
2017-Jun-20 10:56N 39°13' E 119°01'21 0.6
2017-Jun-19 02:21N 38°55' E 119°16'0 0.2
2017-Jun-19 01:57N 38°55' E 119°16'0 0.2
2017-Jun-19 01:21N 38°55' E 119°15'0 0.1
2017-Jun-18 23:33N 38°55' E 119°15'0 0.0
2017-Jun-18 23:21N 38°55' E 119°15'0 0.0
2017-Jun-18 23:00N 38°55' E 119°15'0 0.0
2017-Jun-18 22:27N 38°55' E 119°15'0 0.1
2017-Jun-18 20:27N 38°55' E 119°16'0 0.1
2017-Jun-18 19:54N 38°55' E 119°16'0 0.0
2017-Jun-18 17:51N 38°55' E 119°16'0 0.0
2017-Jun-18 17:24N 38°55' E 119°16'0 0.0
2017-Jun-18 17:00N 38°55' E 119°16'0 0.0
2017-Jun-18 16:27N 38°55' E 119°16'0 0.0
2017-Jun-18 00:27N 38°55' E 119°16'0 0.2
2017-Jun-18 00:00N 38°55' E 119°16'0 0.2
2017-Jun-17 23:30N 38°55' E 119°16'0 0.1
2017-Jun-17 18:54N 38°55' E 119°16'18 0.5
2017-Jun-16 09:31N 38°53' E 119°38'010.9
2017-Jun-16 09:28N 38°52' E 119°39'510.1
2017-Jun-16 09:00N 38°51' E 119°45'510.2
2017-Jun-16 08:30N 38°50' E 119°51'4 9.0
2017-Jun-16 08:00N 38°48' E 119°56'610.6
2017-Jun-16 07:28N 38°47' E 120°04'611.4
2017-Jun-16 06:58N 38°46' E 120°11'711.2
2017-Jun-16 06:22N 38°44' E 120°19'610.9
2017-Jun-16 05:51N 38°43' E 120°26'3310.0
2017-Jun-16 02:31N 38°31' E 121°06'0 9.8
2017-Jun-16 02:30N 38°31' E 121°06'5 9.5
2017-Jun-16 01:57N 38°29' E 121°12'5 9.4
2017-Jun-16 01:27N 38°27' E 121°18'7 9.5
2017-Jun-16 00:44N 38°25' E 121°26'6 9.4
2017-Jun-16 00:07N 38°23' E 121°33'33 9.7
2017-Jun-15 20:43N 38°12' E 122°13'3 9.8
2017-Jun-15 20:24N 38°11' E 122°17'8 9.7
2017-Jun-15 19:32N 38°08' E 122°27'25 9.9
2017-Jun-15 16:57N 37°60' E 122°57'  

Dump ship's entire track history